Time;durP1;ratioP1;P1;durP2;ratioP2;P2;SDS_P1;SDS_P2;PMS_P1;PMS_P2;Temp;Humidity;BMP_temperature;BMP_pressure;BME280_temperature;BME280_humidity;BME280_pressure;Samples;Min_cycle;Max_cycle;Signal;HPM_P1;HPM_P2
2021/03/23 00:01:29;;;;;;;15.43;8.23;;;;;6.30;102096.00;;;;10400940;28;20203;-75
2021/03/23 00:06:31;;;;;;;15.30;8.57;;;;;6.30;102105.00;;;;10350686;28;20676;-75
2021/03/23 00:11:41;;;;;;;16.73;8.20;;;;;6.40;102102.00;;;;10384026;28;20669;-75
2021/03/23 00:16:45;;;;;;;15.23;8.37;;;;;6.60;102106.00;;;;10400802;28;20218;-75
2021/03/23 00:21:47;;;;;;;14.60;9.63;;;;;6.70;102108.00;;;;10383955;28;20217;-75
2021/03/23 00:26:49;;;;;;;12.43;7.40;;;;;6.70;102117.00;;;;10400485;28;20264;-75
2021/03/23 00:31:50;;;;;;;16.87;8.57;;;;;6.80;102113.00;;;;10399575;28;20187;-75
2021/03/23 00:36:52;;;;;;;16.33;7.37;;;;;6.80;102103.00;;;;10398698;28;20191;-75
2021/03/23 00:41:54;;;;;;;16.93;8.43;;;;;6.90;102102.00;;;;10366422;28;20219;-75
2021/03/23 00:46:55;;;;;;;17.83;8.43;;;;;6.90;102110.00;;;;10399516;28;20574;-75
2021/03/23 00:51:57;;;;;;;16.53;8.77;;;;;6.90;102106.00;;;;10366452;28;20191;-75
2021/03/23 00:56:58;;;;;;;19.17;8.47;;;;;6.90;102108.00;;;;10398527;28;20183;-75
2021/03/23 01:02:00;;;;;;;21.23;8.73;;;;;6.90;102119.00;;;;10414558;28;20688;-75
2021/03/23 01:07:03;;;;;;;18.20;8.43;;;;;6.90;102112.00;;;;10382476;28;20195;-75
2021/03/23 01:12:09;;;;;;;15.87;8.00;;;;;6.90;102112.00;;;;10365165;28;21175;-75
2021/03/23 01:17:10;;;;;;;19.73;8.90;;;;;6.90;102111.00;;;;10398856;28;20574;-75
2021/03/23 01:22:11;;;;;;;22.43;9.50;;;;;7.00;102104.00;;;;10398212;28;20206;-75
2021/03/23 01:27:13;;;;;;;18.37;8.83;;;;;6.90;102110.00;;;;10367674;28;20207;-75
2021/03/23 01:32:14;;;;;;;18.57;9.43;;;;;6.90;102112.00;;;;10364403;28;20194;-75
2021/03/23 01:37:19;;;;;;;20.00;9.70;;;;;6.90;102105.00;;;;10397658;28;20708;-75
2021/03/23 01:42:21;;;;;;;18.43;8.73;;;;;6.90;102103.00;;;;10380995;28;20253;-75
2021/03/23 01:47:22;;;;;;;19.27;9.53;;;;;6.90;102100.00;;;;10380481;28;20199;-75
2021/03/23 01:52:26;;;;;;;19.40;9.13;;;;;6.90;102100.00;;;;10380564;28;20201;-75
2021/03/23 01:57:30;;;;;;;20.67;9.60;;;;;6.90;102095.00;;;;10363621;28;20199;-75
2021/03/23 02:02:31;;;;;;;19.20;9.53;;;;;6.90;102094.00;;;;10381059;28;20207;-75
2021/03/23 02:07:43;;;;;;;20.27;9.40;;;;;6.90;102091.00;;;;10413638;28;20216;-75
2021/03/23 02:12:53;;;;;;;19.70;10.03;;;;;7.00;102084.00;;;;10396095;28;20214;-75
2021/03/23 02:18:11;;;;;;;19.20;9.97;;;;;7.00;102081.00;;;;10376148;28;20191;-75
2021/03/23 02:23:23;;;;;;;19.87;10.83;;;;;7.00;102093.00;;;;10396246;28;20203;-75
2021/03/23 02:28:25;;;;;;;25.90;11.20;;;;;7.00;102095.00;;;;10363075;28;20252;-75
2021/03/23 02:33:26;;;;;;;23.03;11.23;;;;;7.00;102085.00;;;;10371582;28;20197;-75
2021/03/23 02:38:28;;;;;;;23.20;10.83;;;;;7.00;102085.00;;;;10363106;28;20198;-75
2021/03/23 02:43:29;;;;;;;24.00;11.23;;;;;7.00;102084.00;;;;10396485;28;20269;-75
2021/03/23 02:48:31;;;;;;;23.13;12.03;;;;;7.00;102074.00;;;;10379612;28;20237;-75
2021/03/23 02:53:32;;;;;;;22.20;11.30;;;;;7.00;102075.00;;;;10344053;28;20195;-75
2021/03/23 02:58:34;;;;;;;25.13;13.03;;;;;7.00;102068.00;;;;10330959;28;20600;-75
2021/03/23 03:03:36;;;;;;;21.83;11.47;;;;;7.00;102072.00;;;;10385296;28;20230;-75
2021/03/23 03:08:38;;;;;;;24.43;12.53;;;;;7.00;102075.00;;;;10370151;28;20222;-75
2021/03/23 03:13:41;;;;;;;24.07;13.27;;;;;6.90;102070.00;;;;10386649;28;20222;-75
2021/03/23 03:18:42;;;;;;;23.47;12.43;;;;;6.90;102074.00;;;;10386390;28;20245;-75
2021/03/23 03:23:45;;;;;;;25.60;13.43;;;;;6.90;102070.00;;;;10361040;28;20914;-75
2021/03/23 03:28:52;;;;;;;20.33;12.07;;;;;6.90;102070.00;;;;10385205;28;20202;-75
2021/03/23 03:33:55;;;;;;;25.60;14.13;;;;;6.90;102071.00;;;;10402457;28;20187;-75
2021/03/23 03:38:57;;;;;;;27.00;13.23;;;;;6.90;102070.00;;;;10402675;28;20202;-75
2021/03/23 03:43:59;;;;;;;23.73;13.23;;;;;6.90;102065.00;;;;10402143;28;20264;-75
2021/03/23 03:49:01;;;;;;;28.57;14.10;;;;;6.90;102074.00;;;;10344527;28;20196;-75
2021/03/23 03:54:05;;;;;;;28.63;14.70;;;;;6.80;102072.00;;;;10407848;28;20221;-75
2021/03/23 03:59:06;;;;;;;23.57;13.17;;;;;6.80;102080.00;;;;10385900;28;20195;-75
2021/03/23 04:04:07;;;;;;;22.37;14.10;;;;;6.80;102078.00;;;;10344460;28;20207;-75
2021/03/23 04:09:14;;;;;;;24.90;14.17;;;;;6.80;102079.00;;;;10360005;28;20199;-75
2021/03/23 04:14:15;;;;;;;28.27;14.13;;;;;6.80;102076.00;;;;10359033;28;20211;-75
2021/03/23 04:19:16;;;;;;;25.63;14.37;;;;;6.80;102081.00;;;;10343491;28;20219;-75
2021/03/23 04:24:18;;;;;;;26.97;14.33;;;;;6.80;102081.00;;;;10351792;28;20585;-75
2021/03/23 04:29:20;;;;;;;28.03;15.53;;;;;6.80;102076.00;;;;10371713;28;20228;-75
2021/03/23 04:34:21;;;;;;;28.40;14.13;;;;;6.80;102077.00;;;;10400098;28;20631;-75
2021/03/23 04:39:36;;;;;;;28.23;14.40;;;;;6.80;102070.00;;;;10369734;28;20205;-75
2021/03/23 04:44:38;;;;;;;28.43;13.67;;;;;6.80;102072.00;;;;10384299;28;20210;-75
2021/03/23 04:49:41;;;;;;;24.57;13.90;;;;;6.80;102067.00;;;;10399719;28;20858;-75
2021/03/23 04:54:42;;;;;;;26.63;14.17;;;;;6.70;102062.00;;;;10417382;28;20194;-75
2021/03/23 04:59:44;;;;;;;32.13;15.53;;;;;6.80;102076.00;;;;10366495;28;20195;-75
2021/03/23 05:04:45;;;;;;;29.00;13.57;;;;;6.80;102075.00;;;;10399203;28;20301;-75
2021/03/23 05:09:57;;;;;;;27.13;12.90;;;;;6.70;102077.00;;;;10398464;28;20277;-75
2021/03/23 05:14:58;;;;;;;27.00;12.87;;;;;6.80;102079.00;;;;10398551;28;20215;-75
2021/03/23 05:20:01;;;;;;;26.27;12.33;;;;;6.70;102077.00;;;;10414169;28;20647;-75
2021/03/23 05:25:03;;;;;;;25.77;13.07;;;;;6.70;102075.00;;;;10381387;28;20682;-75
2021/03/23 05:30:07;;;;;;;28.33;12.50;;;;;6.70;102076.00;;;;10340333;28;20210;-75
2021/03/23 05:35:09;;;;;;;23.07;12.57;;;;;6.70;102076.00;;;;10385125;28;20191;-75
2021/03/23 05:40:29;;;;;;;41.50;12.50;;;;;6.70;102076.00;;;;10397004;28;20286;-75
2021/03/23 05:45:36;;;;;;;22.23;12.17;;;;;6.60;102083.00;;;;10356871;28;20265;-75
2021/03/23 05:50:38;;;;;;;28.30;13.00;;;;;6.60;102089.00;;;;10367325;28;20217;-75
2021/03/23 05:55:42;;;;;;;26.03;13.87;;;;;6.50;102090.00;;;;10406641;28;20194;-75
2021/03/23 06:00:57;;;;;;;21.40;13.47;;;;;6.50;102092.00;;;;10400150;28;20257;-75
2021/03/23 06:06:18;;;;;;;24.57;13.87;;;;;6.40;102089.00;;;;10389275;28;20186;-75
2021/03/23 06:11:43;;;;;;;30.40;14.47;;;;;6.30;102097.00;;;;10363756;28;20557;-75
2021/03/23 06:16:55;;;;;;;30.97;16.50;;;;;6.20;102104.00;;;;10355028;28;20218;-75
2021/03/23 06:22:30;;;;;;;30.77;15.93;;;;;6.20;102108.00;;;;10372235;28;20233;-75
2021/03/23 06:28:20;;;;;;;28.67;14.93;;;;;6.20;102113.00;;;;10339946;28;20203;-75
2021/03/23 06:33:24;;;;;;;36.20;16.27;;;;;6.30;102105.00;;;;10337298;28;20555;-75
2021/03/23 06:38:34;;;;;;;23.60;14.37;;;;;6.40;102112.00;;;;10389112;28;20202;-75
2021/03/23 06:43:37;;;;;;;28.47;16.27;;;;;6.50;102116.00;;;;10379466;28;20536;-75
2021/03/23 06:48:38;;;;;;;34.00;18.07;;;;;6.70;102113.00;;;;10404500;28;20191;-75
2021/03/23 06:53:41;;;;;;;32.30;18.73;;;;;6.80;102121.00;;;;10388024;28;20210;-75
2021/03/23 06:58:43;;;;;;;32.63;15.30;;;;;7.10;102120.00;;;;10403997;28;20191;-75
2021/03/23 07:03:48;;;;;;;32.53;15.77;;;;;7.50;102133.00;;;;10386512;28;20701;-75
2021/03/23 07:09:19;;;;;;;33.77;14.93;;;;;7.90;102118.00;;;;10354127;28;20197;-75
2021/03/23 07:14:33;;;;;;;30.40;15.13;;;;;8.30;102128.00;;;;10419314;28;20209;-75
2021/03/23 07:19:49;;;;;;;29.47;14.43;;;;;8.60;102128.00;;;;10387033;28;20205;-75
2021/03/23 07:24:57;;;;;;;29.83;15.40;;;;;8.90;102128.00;;;;10369895;28;20233;-75
2021/03/23 07:30:31;;;;;;;29.67;14.43;;;;;9.20;102129.00;;;;10401859;28;20728;-74
2021/03/23 07:35:37;;;;;;;27.97;15.23;;;;;9.40;102128.00;;;;10337475;28;20194;-74
2021/03/23 07:40:46;;;;;;;30.37;15.47;;;;;9.70;102135.00;;;;10396938;28;20203;-75
2021/03/23 07:45:56;;;;;;;32.20;15.67;;;;;9.90;102143.00;;;;10384306;28;20207;-75
2021/03/23 07:51:16;;;;;;;27.43;15.73;;;;;10.20;102136.00;;;;10427624;28;20621;-76
2021/03/23 07:56:28;;;;;;;29.47;15.20;;;;;10.50;102145.00;;;;10400742;28;20194;-75
2021/03/23 08:01:42;;;;;;;25.97;14.40;;;;;10.70;102148.00;;;;10399287;28;20202;-75
2021/03/23 08:07:14;;;;;;;26.73;14.80;;;;;10.90;102148.00;;;;10375909;28;20195;-75
2021/03/23 08:12:20;;;;;;;27.07;15.00;;;;;11.10;102145.00;;;;10374051;28;20187;-75
2021/03/23 08:17:40;;;;;;;30.03;16.27;;;;;11.10;102148.00;;;;10399394;28;20194;-75
2021/03/23 08:22:54;;;;;;;26.17;15.00;;;;;11.10;102146.00;;;;10377378;28;20203;-75
2021/03/23 08:28:10;;;;;;;25.37;13.20;;;;;11.30;102143.00;;;;10381788;28;20217;-75
2021/03/23 08:33:29;;;;;;;25.07;12.87;;;;;11.40;102152.00;;;;10426034;28;20240;-75
2021/03/23 08:38:53;;;;;;;27.37;12.37;;;;;11.70;102155.00;;;;10393239;28;20195;-75
2021/03/23 08:43:55;;;;;;;22.93;13.53;;;;;11.60;102149.00;;;;10415612;28;20233;-75
2021/03/23 08:49:04;;;;;;;20.80;12.93;;;;;11.60;102142.00;;;;10398936;28;20198;-75
2021/03/23 08:54:07;;;;;;;26.87;14.20;;;;;12.10;102141.00;;;;10381287;28;20198;-75
2021/03/23 08:59:30;;;;;;;25.27;14.57;;;;;12.50;102143.00;;;;10385526;28;20195;-75
2021/03/23 09:04:40;;;;;;;23.97;13.93;;;;;12.80;102152.00;;;;10398045;28;20202;-75
2021/03/23 09:09:50;;;;;;;27.67;17.37;;;;;13.30;102141.00;;;;10397047;28;20944;-75
2021/03/23 09:15:16;;;;;;;19.80;12.90;;;;;13.70;102142.00;;;;10386976;28;20547;-75
2021/03/23 09:20:49;;;;;;;24.23;13.70;;;;;14.30;102139.00;;;;10382133;28;20646;-76
2021/03/23 09:25:55;;;;;;;21.57;14.00;;;;;14.70;102141.00;;;;10392821;28;20673;-75
2021/03/23 09:31:02;;;;;;;23.77;13.57;;;;;14.90;102126.00;;;;10422529;28;20202;-75
2021/03/23 09:36:09;;;;;;;19.53;12.13;;;;;15.10;102110.00;;;;10376870;28;20191;-75
2021/03/23 09:41:36;;;;;;;29.07;14.57;;;;;15.20;102106.00;;;;10392798;28;20240;-75
2021/03/23 09:46:44;;;;;;;18.43;11.60;;;;;15.30;102106.00;;;;10422508;28;20611;-75
2021/03/23 09:52:02;;;;;;;15.33;10.60;;;;;15.60;102105.00;;;;10389155;28;20203;-75
2021/03/23 09:57:12;;;;;;;20.20;10.37;;;;;15.90;102109.00;;;;10432301;28;20653;-75
2021/03/23 10:02:35;;;;;;;15.80;9.50;;;;;16.00;102103.00;;;;10421727;28;20553;-76
2021/03/23 10:07:39;;;;;;;23.15;10.43;;;;;16.00;102101.00;;;;10394589;28;20655;-74
2021/03/23 10:12:42;;;;;;;19.83;10.52;;;;;16.20;102096.00;;;;10397092;28;20625;-76
2021/03/23 10:17:43;;;;;;;16.73;9.05;;;;;16.40;102091.00;;;;10405433;28;20273;-76
2021/03/23 10:22:52;;;;;;;15.98;8.25;;;;;16.60;102088.00;;;;10388622;28;20268;-76
2021/03/23 10:28:02;;;;;;;19.95;9.80;;;;;16.70;102086.00;;;;10401319;28;20202;-75
2021/03/23 10:33:30;;;;;;;13.45;7.47;;;;;16.80;102099.00;;;;10396789;28;20217;-76
2021/03/23 10:38:33;;;;;;;13.25;8.75;;;;;17.00;102092.00;;;;10393319;28;20189;-75
2021/03/23 10:43:38;;;;;;;15.00;8.38;;;;;17.30;102093.00;;;;10375060;28;20211;-76
2021/03/23 10:48:40;;;;;;;17.80;10.43;;;;;17.40;102091.00;;;;10376975;28;20225;-75
2021/03/23 10:54:02;;;;;;;14.32;7.80;;;;;17.70;102087.00;;;;10425269;28;20273;-75
2021/03/23 10:59:09;;;;;;;13.00;8.93;;;;;18.00;102079.00;;;;10407493;28;20207;-75
2021/03/23 11:04:18;;;;;;;15.68;8.50;;;;;17.30;102087.00;;;;10383779;28;20210;-75
2021/03/23 11:09:20;;;;;;;19.95;10.60;;;;;17.10;102087.00;;;;10408468;28;20202;-75
2021/03/23 11:14:32;;;;;;;16.98;10.52;;;;;16.60;102080.00;;;;10371273;28;20215;-75
2021/03/23 11:19:37;;;;;;;19.80;12.20;;;;;16.10;102081.00;;;;10388323;28;20589;-75
2021/03/23 11:24:39;;;;;;;15.57;9.93;;;;;17.20;102076.00;;;;10384605;28;20263;-75
2021/03/23 11:29:40;;;;;;;14.95;9.57;;;;;17.80;102079.00;;;;10402325;28;20203;-75
2021/03/23 11:34:42;;;;;;;15.25;11.07;;;;;16.90;102079.00;;;;10419363;28;20179;-74
2021/03/23 11:39:43;;;;;;;18.38;10.13;;;;;17.60;102069.00;;;;10398317;28;20245;-75
2021/03/23 11:44:59;;;;;;;18.00;10.93;;;;;16.80;102076.00;;;;10419237;28;20245;-75
2021/03/23 11:50:07;;;;;;;14.32;10.80;;;;;17.10;102083.00;;;;10416566;28;20221;-75
2021/03/23 11:55:12;;;;;;;16.40;12.77;;;;;17.00;102070.00;;;;10367120;28;20195;-75
2021/03/23 12:00:15;;;;;;;17.00;12.07;;;;;17.90;102049.00;;;;10418143;28;20233;-75
2021/03/23 12:05:17;;;;;;;19.35;11.70;;;;;18.50;102064.00;;;;10392275;28;20674;-76
2021/03/23 12:10:24;;;;;;;22.70;13.27;;;;;19.20;102054.00;;;;10417100;28;20222;-76
2021/03/23 12:15:37;;;;;;;18.95;12.73;;;;;19.30;102048.00;;;;10400028;28;20222;-76
2021/03/23 12:20:39;;;;;;;21.13;13.38;;;;;18.80;102044.00;;;;10356962;28;20250;-76
2021/03/23 12:25:40;;;;;;;17.63;12.50;;;;;17.90;102048.00;;;;10378394;28;20214;-76
2021/03/23 12:30:45;;;;;;;18.85;12.65;;;;;18.00;102045.00;;;;10372648;28;20215;-76
2021/03/23 12:35:47;;;;;;;19.88;12.32;;;;;18.00;102042.00;;;;10414640;28;20194;-75
2021/03/23 12:40:48;;;;;;;20.58;12.95;;;;;18.60;102030.00;;;;10398275;28;20241;-74
2021/03/23 12:45:50;;;;;;;19.95;13.25;;;;;17.80;102038.00;;;;10402539;28;20581;-75
2021/03/23 12:50:53;;;;;;;19.85;11.60;;;;;18.00;102020.00;;;;10382987;28;20195;-75
2021/03/23 12:55:54;;;;;;;18.63;12.55;;;;;18.60;102014.00;;;;10378286;28;20222;-75
2021/03/23 13:00:56;;;;;;;20.73;13.70;;;;;18.80;102016.00;;;;10368476;28;20195;-75
2021/03/23 13:05:57;;;;;;;16.92;12.23;;;;;18.60;102005.00;;;;10397627;28;20207;-75
2021/03/23 13:11:21;;;;;;;19.23;12.40;;;;;18.90;101999.00;;;;10413988;28;20581;-75
2021/03/23 13:16:23;;;;;;;22.65;12.60;;;;;18.60;102004.00;;;;10382087;28;20241;-75
2021/03/23 13:21:31;;;;;;;21.88;12.13;;;;;18.60;101991.00;;;;10394691;28;20268;-75
2021/03/23 13:26:33;;;;;;;18.00;11.93;;;;;18.80;101986.00;;;;10384427;28;20642;-75
2021/03/23 13:31:40;;;;;;;21.25;13.68;;;;;18.80;101982.00;;;;10402393;28;20190;-75
2021/03/23 13:36:46;;;;;;;14.55;12.07;;;;;18.70;101983.00;;;;10385993;28;20198;-76
2021/03/23 13:41:49;;;;;;;17.80;12.98;;;;;18.90;101963.00;;;;10376124;28;20202;-75
2021/03/23 13:46:52;;;;;;;18.52;13.40;;;;;19.00;101971.00;;;;10356500;28;20199;-75
2021/03/23 13:52:47;;;;;;;20.63;12.85;;;;;19.50;101962.00;;;;10387587;28;20612;-76
2021/03/23 13:57:51;;;;;;;18.48;13.02;;;;;19.80;101956.00;;;;10374020;28;20207;-75
2021/03/23 14:02:52;;;;;;;20.83;12.88;;;;;20.00;101944.00;;;;10354679;28;20297;-76
2021/03/23 14:07:54;;;;;;;20.05;12.77;;;;;20.80;101936.00;;;;10345364;28;20585;-76
2021/03/23 14:12:59;;;;;;;19.23;13.95;;;;;22.90;101933.00;;;;10361325;28;20290;-75
2021/03/23 14:18:07;;;;;;;22.75;13.82;;;;;23.50;101926.00;;;;10369004;28;20207;-75
2021/03/23 14:23:19;;;;;;;17.50;13.85;;;;;22.90;101935.00;;;;10401491;28;20210;-75
2021/03/23 14:28:33;;;;;;;16.95;12.65;;;;;23.50;101919.00;;;;10378476;28;21024;-75
2021/03/23 14:33:35;;;;;;;19.75;13.15;;;;;21.70;101919.00;;;;10389682;28;20194;-75
2021/03/23 14:38:39;;;;;;;19.63;13.57;;;;;23.70;101905.00;;;;10390662;28;20202;-75
2021/03/23 14:43:40;;;;;;;17.45;12.07;;;;;22.90;101908.00;;;;10395858;28;20214;-75
2021/03/23 14:48:42;;;;;;;21.15;13.88;;;;;22.30;101912.00;;;;10403928;28;20187;-75
2021/03/23 14:53:49;;;;;;;22.02;14.43;;;;;22.00;101906.00;;;;10386738;28;20205;-75
2021/03/23 14:58:52;;;;;;;21.23;15.02;;;;;23.10;101900.00;;;;10386789;28;20191;-75
2021/03/23 15:03:54;;;;;;;23.23;14.63;;;;;23.00;101894.00;;;;10403521;28;20211;-75
2021/03/23 15:09:03;;;;;;;22.42;14.75;;;;;24.10;101885.00;;;;10413624;28;20187;-76
2021/03/23 15:14:05;;;;;;;17.63;14.13;;;;;23.90;101893.00;;;;10400866;28;20948;-75
2021/03/23 15:19:07;;;;;;;19.48;14.55;;;;;22.70;101896.00;;;;10400440;28;20253;-76
2021/03/23 15:24:19;;;;;;;18.92;14.38;;;;;21.90;101889.00;;;;10403227;28;20856;-75
2021/03/23 15:29:24;;;;;;;18.48;14.77;;;;;22.10;101891.00;;;;10378579;28;20210;-75
2021/03/23 15:34:26;;;;;;;25.08;15.05;;;;;22.40;101879.00;;;;10407311;28;20190;-75
2021/03/23 15:39:29;;;;;;;19.48;14.57;;;;;21.70;101877.00;;;;10390718;28;20210;-75
2021/03/23 15:44:31;;;;;;;19.30;14.52;;;;;20.60;101888.00;;;;10383858;28;20207;-75
2021/03/23 15:49:33;;;;;;;21.58;13.77;;;;;19.90;101885.00;;;;10392672;28;20806;-75
2021/03/23 15:54:43;;;;;;;20.23;14.35;;;;;18.90;101895.00;;;;10387408;28;20199;-75
2021/03/23 15:59:44;;;;;;;23.10;14.70;;;;;17.60;101890.00;;;;10407387;28;20273;-75
2021/03/23 16:04:47;;;;;;;19.70;14.02;;;;;17.30;101880.00;;;;10417301;28;20203;-75
2021/03/23 16:09:48;;;;;;;18.63;15.95;;;;;16.30;101876.00;;;;10412184;28;20641;-74
2021/03/23 16:14:50;;;;;;;21.63;16.00;;;;;15.80;101884.00;;;;10425594;28;20202;-74
2021/03/23 16:20:11;;;;;;;27.13;17.60;;;;;15.40;101880.00;;;;10387248;28;20202;-74
2021/03/23 16:25:23;;;;;;;19.80;15.03;;;;;15.10;101879.00;;;;10394709;28;20203;-75
2021/03/23 16:30:26;;;;;;;25.53;14.53;;;;;14.80;101882.00;;;;10343455;28;20206;-74
2021/03/23 16:35:31;;;;;;;20.23;13.93;;;;;14.70;101876.00;;;;10409816;28;20595;-75
2021/03/23 16:40:34;;;;;;;26.70;16.00;;;;;14.50;101870.00;;;;10398070;28;20199;-74
2021/03/23 16:45:37;;;;;;;21.73;16.27;;;;;14.30;101870.00;;;;10418155;28;20245;-74
2021/03/23 16:50:40;;;;;;;18.67;15.20;;;;;14.00;101873.00;;;;10353047;28;20640;-74
2021/03/23 16:55:41;;;;;;;24.27;16.60;;;;;13.80;101887.00;;;;10359054;28;20202;-74
2021/03/23 17:00:44;;;;;;;20.30;14.70;;;;;13.60;101897.00;;;;10401027;28;20192;-75
2021/03/23 17:05:48;;;;;;;22.67;15.83;;;;;13.40;101894.00;;;;10385331;28;20264;-74
2021/03/23 17:10:50;;;;;;;28.27;17.43;;;;;13.20;101883.00;;;;10369294;28;20214;-74
2021/03/23 17:15:51;;;;;;;31.80;18.63;;;;;13.00;101888.00;;;;10382309;28;20368;-74
2021/03/23 17:20:52;;;;;;;27.73;18.33;;;;;12.70;101892.00;;;;10389943;28;20261;-74
2021/03/23 17:25:55;;;;;;;26.63;17.43;;;;;12.50;101893.00;;;;10412149;28;20241;-74
2021/03/23 17:30:57;;;;;;;33.63;18.70;;;;;12.30;101890.00;;;;10404406;28;20256;-76
2021/03/23 17:36:02;;;;;;;26.70;19.90;;;;;12.00;101890.00;;;;10378478;28;20248;-73
2021/03/23 17:41:06;;;;;;;26.23;19.57;;;;;11.80;101892.00;;;;10391579;28;20195;-74
2021/03/23 17:46:09;;;;;;;26.40;18.43;;;;;11.50;101896.00;;;;10378738;28;20203;-76
2021/03/23 17:51:11;;;;;;;27.03;19.57;;;;;11.20;101896.00;;;;10377355;28;20642;-74
2021/03/23 17:56:12;;;;;;;29.10;20.03;;;;;10.90;101894.00;;;;10369356;28;20246;-76
2021/03/23 18:01:15;;;;;;;35.53;21.10;;;;;10.70;101898.00;;;;10368246;28;20669;-74
2021/03/23 18:06:16;;;;;;;34.10;20.73;;;;;10.50;101898.00;;;;10357571;28;20630;-73
2021/03/23 18:11:20;;;;;;;27.37;19.33;;;;;10.30;101902.00;;;;10360063;28;20249;-73
2021/03/23 18:16:22;;;;;;;28.27;19.80;;;;;10.10;101906.00;;;;10410898;28;20206;-73
2021/03/23 18:21:43;;;;;;;29.70;19.17;;;;;9.90;101910.00;;;;10360833;28;20187;-74
2021/03/23 18:26:45;;;;;;;29.23;19.87;;;;;9.80;101911.00;;;;10375182;28;20249;-75
2021/03/23 18:31:48;;;;;;;25.67;18.73;;;;;9.70;101917.00;;;;10397584;28;20210;-73
2021/03/23 18:36:50;;;;;;;29.87;19.10;;;;;9.50;101910.00;;;;10397727;28;20230;-73
2021/03/23 18:41:53;;;;;;;26.50;18.50;;;;;9.40;101905.00;;;;10389351;28;20191;-73
2021/03/23 18:46:54;;;;;;;29.53;18.83;;;;;9.30;101906.00;;;;10384859;28;20239;-76
2021/03/23 18:51:56;;;;;;;31.00;19.93;;;;;9.30;101906.00;;;;10397871;28;20281;-73
2021/03/23 18:56:58;;;;;;;29.03;20.47;;;;;9.20;101913.00;;;;10394894;28;20191;-73
2021/03/23 19:02:02;;;;;;;27.60;19.60;;;;;9.20;101923.00;;;;10406943;28;20244;-76
2021/03/23 19:07:04;;;;;;;32.03;20.57;;;;;9.20;101935.00;;;;10369710;28;20198;-74
2021/03/23 19:12:05;;;;;;;32.07;20.40;;;;;9.10;101924.00;;;;10408649;28;20642;-73
2021/03/23 19:17:07;;;;;;;37.77;22.23;;;;;9.10;101936.00;;;;10393343;28;20191;-74
2021/03/23 19:22:08;;;;;;;33.57;20.60;;;;;9.00;101930.00;;;;10390439;28;20759;-74
2021/03/23 19:27:09;;;;;;;35.93;22.17;;;;;9.00;101929.00;;;;10374509;28;20198;-74
2021/03/23 19:32:11;;;;;;;29.97;21.40;;;;;8.90;101926.00;;;;10374468;28;20198;-74
2021/03/23 19:37:12;;;;;;;35.73;22.23;;;;;8.80;101932.00;;;;10358301;28;20229;-74
2021/03/23 19:42:14;;;;;;;41.47;22.47;;;;;8.70;101928.00;;;;10352087;28;20230;-74
2021/03/23 19:47:16;;;;;;;33.57;22.13;;;;;8.50;101928.00;;;;10374627;28;20562;-74
2021/03/23 19:52:18;;;;;;;35.20;22.00;;;;;8.50;101930.00;;;;10374789;28;20573;-74
2021/03/23 19:57:19;;;;;;;36.77;22.83;;;;;8.60;101938.00;;;;10389309;28;20234;-74
2021/03/23 20:02:20;;;;;;;37.23;22.60;;;;;8.70;101944.00;;;;10373993;28;20203;-74
2021/03/23 20:07:22;;;;;;;36.10;22.23;;;;;8.60;101938.00;;;;10345791;28;20282;-74
2021/03/23 20:12:23;;;;;;;35.17;21.80;;;;;8.60;101923.00;;;;10385704;28;20182;-75
2021/03/23 20:17:25;;;;;;;39.73;22.77;;;;;8.60;101931.00;;;;10398049;28;20300;-74
2021/03/23 20:22:27;;;;;;;36.23;22.83;;;;;8.40;101920.00;;;;10386761;28;20208;-75
2021/03/23 20:27:28;;;;;;;33.57;22.90;;;;;8.30;101922.00;;;;10380843;28;20661;-74
2021/03/23 20:32:29;;;;;;;34.97;22.37;;;;;8.30;101917.00;;;;10378336;28;20550;-74
2021/03/23 20:37:32;;;;;;;35.07;22.90;;;;;8.20;101920.00;;;;10395186;28;20735;-75
2021/03/23 20:42:33;;;;;;;34.90;22.57;;;;;8.20;101915.00;;;;10375717;28;20621;-74
2021/03/23 20:47:34;;;;;;;34.83;22.03;;;;;8.10;101923.00;;;;10360384;28;20197;-74
2021/03/23 20:52:36;;;;;;;35.63;23.17;;;;;8.00;101917.00;;;;10335403;28;20297;-74
2021/03/23 20:57:37;;;;;;;38.57;23.60;;;;;7.90;101911.00;;;;10407085;28;20657;-75
2021/03/23 21:02:38;;;;;;;40.43;26.00;;;;;7.90;101919.00;;;;10384582;28;20302;-76
2021/03/23 21:07:40;;;;;;;46.60;25.80;;;;;7.70;101920.00;;;;10366489;28;20625;-74
2021/03/23 21:12:41;;;;;;;42.30;25.27;;;;;7.60;101916.00;;;;10350018;28;20614;-74
2021/03/23 21:17:44;;;;;;;40.03;25.40;;;;;7.50;101916.00;;;;10381189;28;20187;-74
2021/03/23 21:22:47;;;;;;;41.70;25.13;;;;;7.30;101925.00;;;;10336951;28;20588;-74
2021/03/23 21:27:49;;;;;;;46.20;25.77;;;;;7.30;101925.00;;;;10363848;28;20626;-75
2021/03/23 21:32:50;;;;;;;47.70;26.83;;;;;7.30;101920.00;;;;10391665;28;20269;-75
2021/03/23 21:37:52;;;;;;;41.90;26.27;;;;;7.30;101923.00;;;;10347610;28;20226;-75
2021/03/23 21:42:54;;;;;;;42.33;25.43;;;;;7.20;101910.00;;;;10344552;28;20206;-75
2021/03/23 21:47:57;;;;;;;39.40;25.57;;;;;7.10;101912.00;;;;10395175;28;20654;-75
2021/03/23 21:52:59;;;;;;;47.90;27.30;;;;;7.00;101915.00;;;;10375278;28;20191;-75
2021/03/23 21:58:03;;;;;;;47.90;27.03;;;;;6.90;101913.00;;;;10390040;28;20191;-75
2021/03/23 22:03:13;;;;;;;44.83;26.87;;;;;6.80;101902.00;;;;10358331;28;20309;-75
2021/03/23 22:08:19;;;;;;;51.33;27.17;;;;;6.70;101909.00;;;;10381992;28;20186;-75
2021/03/23 22:13:23;;;;;;;43.70;28.13;;;;;6.70;101905.00;;;;10380733;28;20753;-75
2021/03/23 22:18:26;;;;;;;48.23;27.37;;;;;6.80;101911.00;;;;10395128;28;20223;-75
2021/03/23 22:23:35;;;;;;;50.93;28.40;;;;;6.70;101904.00;;;;10348686;28;20215;-75
2021/03/23 22:28:37;;;;;;;48.07;27.63;;;;;6.60;101907.00;;;;10386110;28;20206;-75
2021/03/23 22:33:38;;;;;;;48.30;27.77;;;;;6.50;101903.00;;;;10363841;28;20636;-75
2021/03/23 22:38:41;;;;;;;60.27;29.83;;;;;6.40;101907.00;;;;10345641;28;20252;-75
2021/03/23 22:43:42;;;;;;;48.97;29.10;;;;;6.40;101903.00;;;;10337493;28;20214;-75
2021/03/23 22:48:44;;;;;;;51.03;29.67;;;;;6.30;101896.00;;;;10359547;28;20187;-75
2021/03/23 22:53:45;;;;;;;50.87;29.83;;;;;6.20;101905.00;;;;10378194;28;20708;-76
2021/03/23 22:58:47;;;;;;;49.70;29.50;;;;;6.20;101905.00;;;;10355190;28;20300;-75
2021/03/23 23:03:48;;;;;;;55.80;29.50;;;;;6.10;101902.00;;;;10377123;28;20215;-75
2021/03/23 23:08:53;;;;;;;58.73;31.13;;;;;6.10;101901.00;;;;10376343;28;20201;-75
2021/03/23 23:13:55;;;;;;;51.47;29.90;;;;;6.10;101905.00;;;;10362465;28;20218;-75
2021/03/23 23:19:21;;;;;;;50.77;31.60;;;;;6.00;101900.00;;;;10400017;28;20601;-75
2021/03/23 23:24:25;;;;;;;51.20;29.63;;;;;6.00;101897.00;;;;10382297;28;20253;-75
2021/03/23 23:29:28;;;;;;;54.37;31.23;;;;;6.10;101902.00;;;;10386357;28;20637;-75
2021/03/23 23:34:29;;;;;;;53.23;30.93;;;;;6.10;101901.00;;;;10403793;28;20700;-75
2021/03/23 23:39:33;;;;;;;56.70;30.70;;;;;6.00;101900.00;;;;10370468;28;20194;-75
2021/03/23 23:44:35;;;;;;;59.13;33.00;;;;;6.10;101887.00;;;;10402958;28;20215;-75
2021/03/23 23:49:36;;;;;;;60.57;33.00;;;;;6.10;101893.00;;;;10402757;28;20202;-75
2021/03/23 23:54:38;;;;;;;58.70;32.43;;;;;6.10;101895.00;;;;10405272;28;20237;-75
2021/03/23 23:59:39;;;;;;;52.90;31.87;;;;;6.00;101895.00;;;;10387753;28;20191;-74
